Terminal Aerodrome Forecast
Issued by NWS Newport/Morehead City, NC

Home | Current Version | Previous Version | Text Only | Print | Product List | Glossary Off
Versions: 1 2 3 4 5 6 7 8 9 10 11 12 13

000
FTUS42 KMHX 270530
TAFEWN
TAF
KEWN 270530Z 2706/2806 VRB03KT P6SM FEW035
     FM270700 VRB03KT 3SM BR FEW035
      TEMPO 2707/2710 1SM BR
     FM271100 00000KT P6SM SCT080
     FM271500 21007KT P6SM SCT080=

USA.gov is the U.S. government's official web portal to all federal, state and local government web resources and services.